Time;durP1;ratioP1;P1;durP2;ratioP2;P2;SDS_P1;SDS_P2;PMS_P1;PMS_P2;Temp;Humidity;BMP_temperature;BMP_pressure;BME280_temperature;BME280_humidity;BME280_pressure;Samples;Min_cycle;Max_cycle;Signal;HPM_P1;HPM_P2
2023/06/08 00:00:31;;;;;;;21.20;15.67;;;13.50;99.90;;;;;;5035062;28;20525;-73
2023/06/08 00:03:04;;;;;;;23.63;16.83;;;13.40;99.90;;;;;;5035041;28;20489;-74
2023/06/08 00:05:43;;;;;;;20.20;16.43;;;13.40;99.90;;;;;;5035210;28;20857;-74
2023/06/08 00:08:13;;;;;;;23.50;15.60;;;13.40;99.90;;;;;;5033282;28;20467;-73
2023/06/08 00:10:45;;;;;;;18.87;15.97;;;13.40;99.90;;;;;;5035120;28;20513;-73
2023/06/08 00:13:16;;;;;;;22.37;16.77;;;13.40;99.90;;;;;;5035161;28;20905;-73
2023/06/08 00:15:44;;;;;;;22.00;17.17;;;13.40;99.90;;;;;;5035205;28;20904;-73
2023/06/08 00:18:12;;;;;;;21.37;16.90;;;13.40;99.90;;;;;;5035354;28;20494;-73
2023/06/08 00:20:41;;;;;;;21.17;18.27;;;13.40;99.90;;;;;;5035404;28;20470;-73
2023/06/08 00:23:09;;;;;;;24.93;17.60;;;13.30;99.90;;;;;;5034731;28;20438;-74
2023/06/08 00:25:39;;;;;;;22.93;17.63;;;13.30;99.90;;;;;;5034471;28;20516;-73
2023/06/08 00:28:07;;;;;;;23.37;18.00;;;13.30;99.90;;;;;;5034361;28;20513;-73
2023/06/08 00:30:35;;;;;;;24.47;17.10;;;13.30;99.90;;;;;;5032975;28;20825;-73
2023/06/08 00:33:03;;;;;;;23.97;18.10;;;13.30;99.90;;;;;;5033224;28;20443;-74
2023/06/08 00:35:32;;;;;;;24.70;18.00;;;13.30;99.90;;;;;;5032884;28;20817;-72
2023/06/08 00:38:00;;;;;;;23.10;17.30;;;13.30;99.90;;;;;;5034218;28;20458;-73
2023/06/08 00:40:29;;;;;;;23.30;18.27;;;13.20;99.90;;;;;;5034073;28;20439;-72
2023/06/08 00:42:58;;;;;;;28.10;17.77;;;13.20;99.90;;;;;;5032811;28;20451;-72
2023/06/08 00:45:27;;;;;;;23.80;17.63;;;13.20;99.90;;;;;;5032850;28;20436;-72
2023/06/08 00:47:55;;;;;;;25.00;17.40;;;13.20;99.90;;;;;;5032634;28;20463;-72
2023/06/08 00:50:24;;;;;;;18.60;15.03;;;13.20;99.90;;;;;;5032556;28;20442;-72
2023/06/08 00:52:52;;;;;;;21.53;17.63;;;13.20;99.90;;;;;;5034128;28;20443;-73
2023/06/08 00:55:21;;;;;;;20.83;16.43;;;13.20;99.90;;;;;;5032735;28;20451;-73
2023/06/08 00:57:51;;;;;;;21.47;16.83;;;13.20;99.90;;;;;;5032676;28;20469;-72
2023/06/08 01:00:22;;;;;;;20.43;15.03;;;13.20;99.90;;;;;;5032649;28;20455;-72
2023/06/08 01:02:50;;;;;;;19.73;16.30;;;13.20;99.90;;;;;;5032332;28;20537;-72
2023/06/08 01:05:19;;;;;;;20.70;16.10;;;13.20;99.90;;;;;;5032308;28;20526;-72
2023/06/08 01:08:05;;;;;;;18.43;14.97;;;13.20;99.90;;;;;;5032327;28;20463;-71
2023/06/08 01:10:39;;;;;;;25.83;17.70;;;13.20;99.90;;;;;;5032376;28;20489;-71
2023/06/08 01:13:12;;;;;;;21.10;15.27;;;13.20;99.90;;;;;;5033693;28;20427;-72
2023/06/08 01:15:46;;;;;;;23.23;15.80;;;13.20;99.90;;;;;;5033781;28;20419;-72
2023/06/08 01:18:17;;;;;;;19.70;16.47;;;13.20;99.90;;;;;;5031770;28;20569;-72
2023/06/08 01:21:02;;;;;;;21.90;15.70;;;13.20;99.90;;;;;;5032277;28;20458;-72
2023/06/08 01:23:38;;;;;;;21.60;16.80;;;13.20;99.90;;;;;;5032025;28;20872;-72
2023/06/08 01:26:10;;;;;;;21.87;15.77;;;13.10;99.90;;;;;;5032059;28;20439;-72
2023/06/08 01:28:39;;;;;;;21.67;16.10;;;13.10;99.90;;;;;;5033558;28;20423;-71
2023/06/08 01:31:08;;;;;;;24.03;17.37;;;13.10;99.90;;;;;;5033725;28;20423;-72
2023/06/08 01:33:37;;;;;;;24.40;17.47;;;13.10;99.90;;;;;;5033301;28;20427;-72
2023/06/08 01:36:11;;;;;;;18.10;15.60;;;13.00;99.90;;;;;;5033579;28;20439;-72
2023/06/08 01:38:49;;;;;;;20.77;15.83;;;13.00;99.90;;;;;;5031940;28;20982;-72
2023/06/08 01:41:23;;;;;;;20.33;16.37;;;13.00;99.90;;;;;;5031823;28;20501;-72
2023/06/08 01:43:52;;;;;;;20.33;16.83;;;13.00;99.90;;;;;;5032299;28;20803;-72
2023/06/08 01:46:23;;;;;;;21.87;16.20;;;13.00;99.90;;;;;;5033653;28;20438;-72
2023/06/08 01:48:52;;;;;;;17.20;13.07;;;13.00;99.90;;;;;;5033584;28;20426;-72
2023/06/08 01:51:21;;;;;;;19.93;16.13;;;12.90;99.90;;;;;;5032065;28;20796;-71
2023/06/08 01:53:59;;;;;;;20.70;16.80;;;12.90;99.90;;;;;;5031992;28;20438;-71
2023/06/08 01:56:30;;;;;;;21.80;15.67;;;12.90;99.90;;;;;;5033272;28;20460;-71
2023/06/08 01:58:58;;;;;;;23.73;17.43;;;12.90;99.90;;;;;;5031911;28;20439;-72
2023/06/08 02:01:27;;;;;;;22.57;16.33;;;12.90;99.90;;;;;;5031712;28;20450;-72
2023/06/08 02:03:55;;;;;;;20.67;17.73;;;12.90;99.90;;;;;;5031838;28;20806;-71
2023/06/08 02:06:24;;;;;;;25.70;17.83;;;12.90;99.90;;;;;;5031740;28;20510;-72
2023/06/08 02:08:52;;;;;;;20.67;16.23;;;12.90;99.90;;;;;;5033400;28;20497;-73
2023/06/08 02:11:21;;;;;;;20.90;17.53;;;12.80;99.90;;;;;;5033593;28;20443;-71
2023/06/08 02:13:51;;;;;;;22.10;17.10;;;12.80;99.90;;;;;;5033053;28;20492;-72
2023/06/08 02:16:19;;;;;;;21.17;16.90;;;12.80;99.90;;;;;;5031581;28;20451;-72
2023/06/08 02:18:49;;;;;;;20.17;16.20;;;12.80;99.90;;;;;;5031636;28;20443;-72
2023/06/08 02:21:19;;;;;;;23.30;16.77;;;12.80;99.90;;;;;;5031599;28;20824;-72
2023/06/08 02:23:47;;;;;;;17.87;15.37;;;12.70;99.90;;;;;;5031449;28;20620;-71
2023/06/08 02:26:16;;;;;;;21.90;15.20;;;12.70;99.90;;;;;;5033095;28;20439;-72
2023/06/08 02:28:44;;;;;;;20.80;16.47;;;12.70;99.90;;;;;;5031318;28;20570;-72
2023/06/08 02:31:14;;;;;;;21.07;17.50;;;12.70;99.90;;;;;;5034615;28;20434;-72
2023/06/08 02:33:42;;;;;;;20.90;16.13;;;12.70;99.90;;;;;;5035264;28;20537;-72
2023/06/08 02:36:12;;;;;;;16.87;15.07;;;12.70;99.90;;;;;;5035073;28;20451;-71
2023/06/08 02:38:41;;;;;;;21.27;16.17;;;12.70;99.90;;;;;;5035902;28;20450;-70
2023/06/08 02:41:10;;;;;;;18.30;14.57;;;12.70;99.90;;;;;;5035464;28;20546;-72
2023/06/08 02:43:42;;;;;;;19.90;15.10;;;12.70;99.90;;;;;;5035125;28;20467;-71
2023/06/08 02:46:11;;;;;;;17.53;15.73;;;12.70;99.90;;;;;;5035365;28;20455;-71
2023/06/08 02:48:41;;;;;;;20.93;16.17;;;12.70;99.90;;;;;;5035809;28;20454;-72
2023/06/08 02:51:09;;;;;;;20.30;16.10;;;12.70;99.90;;;;;;5035048;28;20446;-72
2023/06/08 02:53:38;;;;;;;19.90;16.60;;;12.70;99.90;;;;;;5034967;28;20454;-71
2023/06/08 02:56:06;;;;;;;22.80;16.23;;;12.60;99.90;;;;;;5036055;28;20431;-71
2023/06/08 02:58:34;;;;;;;22.57;15.83;;;12.60;99.90;;;;;;5034969;28;20432;-71
2023/06/08 03:01:04;;;;;;;20.07;15.20;;;12.60;99.90;;;;;;5034856;28;20451;-72
2023/06/08 03:04:08;;;;;;;17.73;15.40;;;12.60;99.90;;;;;;5035701;28;20517;-71
2023/06/08 03:06:42;;;;;;;19.30;14.97;;;12.60;99.90;;;;;;5034774;28;20508;-71
2023/06/08 03:09:13;;;;;;;23.53;15.30;;;12.60;99.90;;;;;;5034571;28;21002;-70
2023/06/08 03:11:47;;;;;;;21.57;16.17;;;12.60;99.90;;;;;;5034630;28;20435;-71
2023/06/08 03:14:16;;;;;;;22.57;16.23;;;12.60;99.90;;;;;;5034660;28;20446;-71
2023/06/08 03:16:45;;;;;;;19.67;14.70;;;12.60;99.90;;;;;;5035714;28;20457;-71
2023/06/08 03:19:15;;;;;;;19.87;16.10;;;12.60;99.90;;;;;;5036074;28;20804;-71
2023/06/08 03:21:49;;;;;;;18.13;14.47;;;12.60;99.90;;;;;;5034500;28;20466;-71
2023/06/08 03:24:20;;;;;;;20.90;15.60;;;12.60;99.90;;;;;;5034606;28;20494;-70
2023/06/08 03:26:52;;;;;;;20.70;15.30;;;12.60;99.90;;;;;;5034941;28;20560;-71
2023/06/08 03:29:20;;;;;;;18.87;16.83;;;12.60;99.90;;;;;;5035489;28;20520;-72
2023/06/08 03:31:48;;;;;;;20.90;15.07;;;12.60;99.90;;;;;;5034249;28;20469;-71
2023/06/08 03:34:23;;;;;;;21.67;17.60;;;12.50;99.90;;;;;;5034179;28;20481;-71
2023/06/08 03:36:51;;;;;;;26.27;17.37;;;12.50;99.90;;;;;;5034151;28;20463;-72
2023/06/08 03:39:23;;;;;;;20.67;17.97;;;12.50;99.90;;;;;;5034658;28;20839;-72
2023/06/08 03:41:52;;;;;;;20.70;17.00;;;12.40;99.90;;;;;;5035368;28;20439;-71
2023/06/08 03:44:23;;;;;;;20.87;15.97;;;12.50;99.90;;;;;;5035289;28;20465;-72
2023/06/08 03:46:51;;;;;;;21.27;16.70;;;12.50;99.90;;;;;;5034468;28;20471;-72
2023/06/08 03:49:21;;;;;;;24.37;16.60;;;12.50;99.90;;;;;;5043445;28;20461;-72
2023/06/08 03:51:50;;;;;;;22.23;17.27;;;12.40;99.90;;;;;;5041890;28;20447;-71
2023/06/08 03:54:19;;;;;;;24.00;17.00;;;12.40;99.90;;;;;;5037000;28;20446;-72
2023/06/08 03:56:47;;;;;;;21.53;16.00;;;12.40;99.90;;;;;;5038569;28;20517;-71
2023/06/08 03:59:15;;;;;;;22.63;16.90;;;12.40;99.90;;;;;;5037113;28;20447;-71
2023/06/08 04:01:45;;;;;;;23.17;16.47;;;12.40;99.90;;;;;;5035115;28;21058;-71
2023/06/08 04:04:15;;;;;;;21.50;16.57;;;12.40;99.90;;;;;;5035335;28;20475;-72
2023/06/08 04:06:45;;;;;;;20.53;17.43;;;12.40;99.90;;;;;;5034693;28;20513;-72
2023/06/08 04:09:14;;;;;;;23.23;17.57;;;12.40;99.90;;;;;;5034257;28;20450;-72
2023/06/08 04:11:42;;;;;;;21.40;16.23;;;12.30;99.90;;;;;;5035430;28;20554;-71
2023/06/08 04:14:11;;;;;;;20.00;15.57;;;12.30;99.90;;;;;;5035011;28;20431;-71
2023/06/08 04:16:41;;;;;;;23.90;17.80;;;12.40;99.90;;;;;;5033711;28;20463;-71
2023/06/08 04:19:10;;;;;;;25.83;18.17;;;12.40;99.90;;;;;;5033406;28;20473;-71
2023/06/08 04:21:39;;;;;;;21.80;17.60;;;12.40;99.90;;;;;;5033484;28;20450;-72
2023/06/08 04:24:13;;;;;;;24.03;18.27;;;12.40;99.90;;;;;;5033694;28;20467;-71
2023/06/08 04:26:41;;;;;;;21.73;16.43;;;12.40;99.90;;;;;;5033162;28;20465;-71
2023/06/08 04:29:10;;;;;;;20.77;16.63;;;12.40;99.90;;;;;;5032978;28;20486;-71
2023/06/08 04:31:40;;;;;;;22.50;17.83;;;12.50;99.90;;;;;;5033057;28;20451;-71
2023/06/08 04:34:10;;;;;;;21.53;16.87;;;12.50;99.90;;;;;;5034228;28;20447;-72
2023/06/08 04:36:42;;;;;;;21.73;16.33;;;12.50;99.90;;;;;;5032652;28;21003;-71
2023/06/08 04:39:12;;;;;;;24.57;17.60;;;12.50;99.90;;;;;;5032966;28;20948;-71
2023/06/08 04:41:45;;;;;;;23.27;16.77;;;12.50;99.90;;;;;;5032823;28;20461;-71
2023/06/08 04:44:20;;;;;;;24.50;17.67;;;12.50;99.90;;;;;;5032644;28;20869;-72
2023/06/08 04:46:53;;;;;;;21.57;15.67;;;12.50;99.90;;;;;;5033174;28;20466;-72
2023/06/08 04:49:21;;;;;;;22.90;17.03;;;12.50;99.90;;;;;;5034010;28;20501;-72
2023/06/08 04:51:49;;;;;;;19.90;16.87;;;12.50;99.90;;;;;;5033182;28;20828;-71
2023/06/08 04:54:21;;;;;;;21.87;17.07;;;12.50;99.90;;;;;;5033308;28;20439;-71
2023/06/08 04:56:49;;;;;;;25.60;18.43;;;12.50;99.90;;;;;;5032472;28;20552;-71
2023/06/08 04:59:17;;;;;;;23.90;17.10;;;12.60;99.90;;;;;;5032474;28;20584;-72
2023/06/08 05:01:46;;;;;;;19.67;16.50;;;12.60;99.90;;;;;;5032287;28;21021;-71
2023/06/08 05:04:15;;;;;;;24.90;18.97;;;12.60;99.90;;;;;;5032240;28;20903;-72
2023/06/08 05:06:43;;;;;;;19.80;16.50;;;12.60;99.90;;;;;;5034025;28;20461;-72
2023/06/08 05:09:12;;;;;;;22.27;17.73;;;12.60;99.90;;;;;;5032337;28;20478;-72
2023/06/08 05:11:41;;;;;;;25.67;17.50;;;12.70;99.90;;;;;;5033587;28;20439;-72
2023/06/08 05:14:10;;;;;;;25.27;16.20;;;12.70;99.90;;;;;;5033770;28;20861;-72
2023/06/08 05:16:41;;;;;;;20.50;16.03;;;12.70;99.90;;;;;;5033843;28;20998;-72
2023/06/08 05:19:11;;;;;;;20.60;16.70;;;12.70;99.90;;;;;;5033458;28;20458;-72
2023/06/08 05:21:40;;;;;;;20.40;17.00;;;12.80;99.90;;;;;;5033444;28;20856;-71
2023/06/08 05:24:08;;;;;;;22.53;16.37;;;12.70;99.90;;;;;;5033478;28;21095;-72
2023/06/08 05:26:38;;;;;;;23.40;18.47;;;12.80;99.90;;;;;;5031916;28;20499;-72
2023/06/08 05:29:08;;;;;;;22.07;17.80;;;12.80;99.90;;;;;;5033366;28;20455;-72
2023/06/08 05:31:38;;;;;;;25.17;17.23;;;12.90;99.90;;;;;;5033516;28;20438;-71
2023/06/08 05:34:07;;;;;;;19.57;14.97;;;12.90;99.90;;;;;;5033304;28;20938;-72
2023/06/08 05:36:35;;;;;;;21.20;14.40;;;13.00;99.90;;;;;;5033134;28;20450;-72
2023/06/08 05:39:04;;;;;;;21.37;15.30;;;13.00;99.90;;;;;;5033119;28;20462;-72
2023/06/08 05:41:33;;;;;;;18.17;14.10;;;13.10;99.90;;;;;;5033078;28;20526;-72
2023/06/08 05:44:01;;;;;;;19.33;13.90;;;13.20;99.90;;;;;;5033311;28;20466;-72
2023/06/08 05:46:30;;;;;;;22.30;14.77;;;13.20;99.90;;;;;;5033207;28;20504;-72
2023/06/08 05:48:58;;;;;;;19.60;13.10;;;13.20;99.90;;;;;;5033014;28;20466;-72
2023/06/08 05:51:27;;;;;;;19.10;13.20;;;13.40;99.90;;;;;;5033353;28;20437;-72
2023/06/08 05:53:55;;;;;;;21.00;13.30;;;13.50;99.90;;;;;;5033169;28;20439;-72
2023/06/08 05:56:23;;;;;;;18.30;12.23;;;13.60;99.90;;;;;;5032895;28;20455;-72
2023/06/08 05:58:51;;;;;;;16.00;11.90;;;13.70;99.90;;;;;;5033136;28;20820;-72
2023/06/08 06:01:20;;;;;;;22.17;12.37;;;13.90;99.90;;;;;;5032941;28;20814;-72
2023/06/08 06:03:50;;;;;;;18.57;11.50;;;14.00;99.90;;;;;;5031924;28;20949;-72
2023/06/08 06:06:19;;;;;;;19.53;12.13;;;14.20;99.90;;;;;;5036475;28;20390;-73
2023/06/08 06:08:47;;;;;;;16.90;11.17;;;14.40;99.90;;;;;;5036725;28;20450;-72
2023/06/08 06:11:15;;;;;;;16.90;11.00;;;14.50;99.90;;;;;;5035566;28;20450;-72
2023/06/08 06:13:43;;;;;;;16.47;11.60;;;14.70;99.90;;;;;;5036854;28;20558;-73
2023/06/08 06:16:12;;;;;;;17.20;10.63;;;14.90;99.90;;;;;;5037221;28;20489;-72
2023/06/08 06:18:45;;;;;;;15.47;9.90;;;15.00;99.90;;;;;;5037060;28;20431;-73
2023/06/08 06:21:15;;;;;;;19.50;11.67;;;15.20;99.90;;;;;;5036904;28;20431;-73
2023/06/08 06:23:44;;;;;;;20.03;11.67;;;15.40;99.90;;;;;;5036929;28;20915;-73
2023/06/08 06:26:12;;;;;;;15.60;11.03;;;15.60;99.90;;;;;;5036798;28;20414;-72
2023/06/08 06:28:41;;;;;;;16.20;10.83;;;15.70;99.90;;;;;;5036744;28;20548;-73
2023/06/08 06:31:09;;;;;;;14.27;10.20;;;15.90;99.90;;;;;;5036934;28;20757;-73
2023/06/08 06:33:37;;;;;;;16.83;11.20;;;15.90;99.90;;;;;;5037079;28;20447;-73
2023/06/08 06:36:06;;;;;;;13.43;9.87;;;16.00;99.90;;;;;;5036528;28;20804;-72
2023/06/08 06:38:35;;;;;;;18.97;10.00;;;16.10;99.90;;;;;;5036840;28;20942;-73
2023/06/08 06:41:03;;;;;;;13.40;10.50;;;16.20;99.90;;;;;;5036317;28;20430;-73
2023/06/08 06:43:33;;;;;;;12.97;9.83;;;16.30;99.90;;;;;;5036343;28;20521;-73
2023/06/08 06:46:12;;;;;;;17.00;10.17;;;16.40;99.90;;;;;;5035162;28;20438;-73
2023/06/08 06:48:40;;;;;;;17.20;9.97;;;16.50;99.90;;;;;;5036264;28;20421;-72
2023/06/08 06:51:09;;;;;;;20.20;11.13;;;16.60;99.90;;;;;;5036453;28;20934;-73
2023/06/08 06:53:38;;;;;;;14.37;9.60;;;16.70;99.90;;;;;;5036516;28;20443;-72
2023/06/08 06:56:06;;;;;;;15.47;9.77;;;16.90;99.90;;;;;;5036312;28;20434;-73
2023/06/08 06:58:34;;;;;;;15.47;10.20;;;17.00;99.90;;;;;;5035294;28;20450;-73
2023/06/08 07:01:03;;;;;;;18.47;10.30;;;17.10;99.90;;;;;;5035396;28;20442;-72
2023/06/08 07:03:33;;;;;;;15.70;10.50;;;17.20;99.90;;;;;;5037422;28;20554;-73
2023/06/08 07:06:03;;;;;;;16.40;12.07;;;17.30;99.90;;;;;;5037054;28;20546;-75
2023/06/08 07:08:32;;;;;;;13.70;9.13;;;17.40;99.90;;;;;;5037388;28;20435;-73
2023/06/08 07:11:01;;;;;;;15.93;9.20;;;17.40;99.90;;;;;;5037468;28;20454;-73
2023/06/08 07:13:30;;;;;;;13.47;9.20;;;17.50;99.90;;;;;;5036757;28;20438;-72
2023/06/08 07:15:58;;;;;;;11.47;9.10;;;17.60;99.90;;;;;;5036256;28;20917;-73
2023/06/08 07:18:26;;;;;;;13.03;9.23;;;17.70;99.90;;;;;;5035092;28;20474;-73
2023/06/08 07:20:55;;;;;;;14.83;9.70;;;17.70;99.90;;;;;;5036080;28;20439;-73
2023/06/08 07:23:23;;;;;;;16.43;10.17;;;17.90;99.90;;;;;;5035118;28;20418;-73
2023/06/08 07:26:13;;;;;;;12.40;9.97;;;17.90;99.90;;;;;;5035298;28;20836;-73
2023/06/08 07:28:57;;;;;;;13.07;9.20;;;18.00;99.90;;;;;;5036261;28;20952;-73
2023/06/08 07:31:26;;;;;;;13.93;8.87;;;18.00;99.90;;;;;;5036797;28;20895;-73
2023/06/08 07:33:56;;;;;;;11.97;9.40;;;17.90;99.90;;;;;;5036063;28;20489;-73
2023/06/08 07:36:24;;;;;;;12.10;8.70;;;17.90;99.90;;;;;;5035787;28;20979;-73
2023/06/08 07:38:52;;;;;;;17.77;9.87;;;17.90;99.90;;;;;;5036495;28;20518;-73
2023/06/08 07:41:22;;;;;;;16.57;9.43;;;18.00;99.90;;;;;;5036495;28;20446;-72
2023/06/08 07:43:50;;;;;;;13.90;9.17;;;18.10;99.90;;;;;;5036058;28;20434;-72
2023/06/08 07:46:18;;;;;;;14.07;9.60;;;18.10;99.90;;;;;;5035908;28;20538;-72
2023/06/08 07:48:46;;;;;;;16.57;9.40;;;18.20;99.90;;;;;;5036222;28;20446;-72
2023/06/08 07:51:15;;;;;;;14.07;9.10;;;18.40;99.90;;;;;;5035639;28;20890;-73
2023/06/08 07:53:43;;;;;;;16.80;8.83;;;18.50;99.90;;;;;;5035493;28;20435;-72
2023/06/08 07:56:11;;;;;;;16.80;9.43;;;18.60;99.90;;;;;;5036609;28;20435;-73
2023/06/08 07:58:41;;;;;;;15.50;9.80;;;18.60;99.90;;;;;;5036632;28;20647;-72
2023/06/08 08:01:09;;;;;;;15.40;8.97;;;18.70;99.90;;;;;;5035989;28;20530;-72
2023/06/08 08:03:38;;;;;;;11.83;9.67;;;18.80;99.90;;;;;;5034746;28;20451;-73
2023/06/08 08:06:08;;;;;;;17.13;10.33;;;18.90;99.90;;;;;;5033683;28;20968;-72
2023/06/08 08:08:36;;;;;;;16.03;10.10;;;18.90;99.90;;;;;;5036989;28;20485;-73
2023/06/08 08:11:04;;;;;;;14.83;9.10;;;19.00;99.90;;;;;;5035832;28;20494;-73
2023/06/08 08:13:33;;;;;;;12.20;9.80;;;19.10;99.90;;;;;;5035350;28;20437;-73
2023/06/08 08:16:03;;;;;;;11.90;9.73;;;19.20;99.90;;;;;;5036558;28;20860;-73
2023/06/08 08:18:31;;;;;;;18.33;10.80;;;19.30;99.90;;;;;;5036275;28;20853;-73
2023/06/08 08:21:00;;;;;;;13.07;10.07;;;19.30;99.90;;;;;;5035161;28;20848;-73
2023/06/08 08:23:28;;;;;;;18.13;11.53;;;19.40;99.90;;;;;;5035490;28;20489;-74
2023/06/08 08:25:56;;;;;;;12.83;9.07;;;19.40;99.90;;;;;;5034880;28;20562;-73
2023/06/08 08:28:25;;;;;;;15.17;9.13;;;19.50;99.90;;;;;;5034196;28;20455;-74
2023/06/08 08:30:53;;;;;;;13.80;10.37;;;19.60;99.90;;;;;;5035557;28;20828;-74
2023/06/08 08:33:24;;;;;;;13.63;8.70;;;19.60;99.90;;;;;;5034486;28;20529;-73
2023/06/08 08:35:53;;;;;;;18.37;10.03;;;19.60;99.90;;;;;;5034506;28;20419;-73
2023/06/08 08:38:21;;;;;;;19.13;9.43;;;19.70;99.90;;;;;;5034375;28;20534;-73
2023/06/08 08:40:52;;;;;;;11.67;8.37;;;19.80;99.90;;;;;;5035078;28;20859;-74
2023/06/08 08:43:25;;;;;;;15.33;9.17;;;19.90;99.90;;;;;;5034966;28;20423;-74
2023/06/08 08:45:54;;;;;;;11.90;9.07;;;19.90;99.90;;;;;;5033342;28;20451;-74
2023/06/08 08:48:29;;;;;;;13.30;7.73;;;20.00;99.90;;;;;;5033535;28;21052;-74
2023/06/08 08:50:58;;;;;;;12.30;8.00;;;20.10;99.90;;;;;;5034934;28;20427;-75
2023/06/08 08:53:30;;;;;;;11.10;8.50;;;20.20;99.90;;;;;;5034552;28;20443;-73
2023/06/08 08:55:59;;;;;;;13.57;8.20;;;20.30;99.90;;;;;;5034629;28;20422;-75
2023/06/08 08:58:28;;;;;;;11.70;7.80;;;20.30;99.90;;;;;;5034747;28;20802;-75
2023/06/08 09:00:56;;;;;;;14.83;8.20;;;20.40;99.90;;;;;;5034858;28;20512;-75
2023/06/08 09:03:26;;;;;;;13.03;8.43;;;20.40;99.90;;;;;;5034232;28;20435;-75
2023/06/08 09:05:54;;;;;;;13.03;8.60;;;20.50;99.90;;;;;;5035076;28;20463;-75
2023/06/08 09:08:25;;;;;;;14.07;9.13;;;20.50;99.90;;;;;;5034561;28;20461;-75
2023/06/08 09:11:03;;;;;;;14.33;8.70;;;20.60;99.90;;;;;;5034763;28;20908;-75
2023/06/08 09:13:33;;;;;;;13.57;8.80;;;20.60;99.90;;;;;;5034631;28;20423;-74
2023/06/08 09:16:11;;;;;;;14.33;9.43;;;20.70;99.90;;;;;;5034194;28;20493;-75
2023/06/08 09:18:41;;;;;;;15.80;8.50;;;20.80;99.90;;;;;;5035338;28;20522;-75
2023/06/08 09:21:23;;;;;;;12.07;8.63;;;20.80;99.90;;;;;;5034120;28;20474;-75
2023/06/08 09:24:04;;;;;;;13.73;8.50;;;20.90;99.90;;;;;;5034388;28;20835;-75
2023/06/08 09:26:39;;;;;;;15.60;9.30;;;20.90;99.90;;;;;;5035072;28;20622;-75
2023/06/08 09:29:07;;;;;;;13.13;9.00;;;21.00;99.90;;;;;;5034925;28;20470;-75
2023/06/08 09:31:39;;;;;;;17.33;8.83;;;21.00;99.90;;;;;;5034226;28;20846;-76
2023/06/08 09:34:12;;;;;;;13.07;8.77;;;21.10;99.90;;;;;;5034991;28;20430;-75
2023/06/08 09:36:43;;;;;;;14.37;8.00;;;21.20;99.90;;;;;;5034966;28;20450;-74
2023/06/08 09:39:12;;;;;;;13.80;7.97;;;21.30;99.90;;;;;;5033047;28;20496;-74
2023/06/08 09:41:40;;;;;;;17.97;9.73;;;21.30;99.90;;;;;;5034508;28;20435;-75
2023/06/08 09:44:19;;;;;;;14.93;7.77;;;21.40;99.90;;;;;;5035271;28;20423;-75
2023/06/08 09:46:48;;;;;;;17.50;8.53;;;21.40;99.90;;;;;;5034399;28;20485;-75
2023/06/08 09:49:18;;;;;;;12.63;6.50;;;21.40;99.90;;;;;;5034605;28;20492;-75
2023/06/08 09:51:48;;;;;;;15.10;8.43;;;21.50;99.90;;;;;;5034624;28;20466;-74
2023/06/08 09:54:20;;;;;;;12.70;8.67;;;21.60;99.90;;;;;;5033065;28;20442;-75
2023/06/08 09:56:54;;;;;;;11.30;8.30;;;21.60;99.90;;;;;;5034653;28;20447;-75
2023/06/08 09:59:29;;;;;;;14.67;8.63;;;21.70;99.90;;;;;;5034773;28;20422;-75
2023/06/08 10:02:03;;;;;;;12.17;6.40;;;21.70;99.90;;;;;;5034313;28;20431;-74
2023/06/08 10:04:39;;;;;;;14.17;7.90;;;21.80;99.90;;;;;;5034951;28;20422;-74
2023/06/08 10:07:11;;;;;;;15.03;7.90;;;21.80;99.90;;;;;;5033171;28;20850;-75
2023/06/08 10:09:44;;;;;;;11.67;8.23;;;21.90;99.90;;;;;;5033285;28;20439;-75
2023/06/08 10:12:16;;;;;;;11.43;7.53;;;22.00;99.90;;;;;;5034782;28;20781;-75
2023/06/08 10:14:44;;;;;;;12.00;6.80;;;22.00;99.90;;;;;;5033948;28;20485;-75
2023/06/08 10:17:15;;;;;;;11.27;8.03;;;22.00;99.90;;;;;;5034163;28;20561;-75
2023/06/08 10:19:45;;;;;;;11.53;7.90;;;22.10;99.90;;;;;;5033062;28;20534;-75
2023/06/08 10:22:13;;;;;;;13.43;7.10;;;22.20;99.90;;;;;;5032861;28;20443;-75
2023/06/08 10:24:42;;;;;;;11.70;7.40;;;22.20;99.90;;;;;;5034063;28;20465;-75
2023/06/08 10:27:32;;;;;;;15.20;8.53;;;22.30;99.90;;;;;;5034488;28;20470;-75
2023/06/08 10:30:03;;;;;;;14.57;7.80;;;22.30;99.90;;;;;;5034122;28;20438;-75
2023/06/08 10:32:32;;;;;;;12.93;8.00;;;22.40;99.90;;;;;;5033054;28;20443;-75
2023/06/08 10:35:05;;;;;;;15.20;8.50;;;22.40;99.90;;;;;;5033886;28;20445;-75
2023/06/08 10:37:37;;;;;;;14.10;6.97;;;22.50;99.90;;;;;;5033987;28;20455;-75
2023/06/08 10:40:09;;;;;;;12.87;8.00;;;22.50;99.90;;;;;;5034103;28;20473;-75
2023/06/08 10:42:38;;;;;;;14.43;8.47;;;22.50;99.90;;;;;;5034135;28;20983;-75
2023/06/08 10:45:07;;;;;;;14.73;8.50;;;22.60;99.90;;;;;;5033855;28;20537;-75
2023/06/08 10:47:38;;;;;;;15.43;8.53;;;22.70;99.90;;;;;;5033819;28;20482;-75
2023/06/08 10:50:10;;;;;;;11.23;7.30;;;22.70;99.90;;;;;;5033662;28;20439;-75
2023/06/08 10:52:45;;;;;;;11.87;7.83;;;22.80;99.90;;;;;;5035189;28;20442;-75
2023/06/08 10:55:16;;;;;;;14.17;9.00;;;22.90;99.90;;;;;;5035300;28;20492;-75
2023/06/08 10:57:46;;;;;;;12.30;7.50;;;23.00;99.90;;;;;;5035161;28;20844;-76
2023/06/08 11:00:43;;;;;;;11.47;7.37;;;23.10;99.90;;;;;;5035248;28;20974;-76
2023/06/08 11:03:17;;;;;;;12.53;7.30;;;23.10;99.90;;;;;;5036525;28;20431;-76
2023/06/08 11:05:52;;;;;;;11.33;8.07;;;23.20;99.90;;;;;;5035323;28;20517;-75
2023/06/08 11:08:21;;;;;;;12.27;8.57;;;23.20;99.90;;;;;;5036260;28;20484;-75
2023/06/08 11:10:54;;;;;;;14.13;7.90;;;23.30;99.90;;;;;;5037318;28;20439;-74
2023/06/08 11:13:23;;;;;;;14.53;7.50;;;23.40;99.90;;;;;;5036470;28;20529;-76
2023/06/08 11:15:52;;;;;;;10.50;7.80;;;23.40;99.90;;;;;;5036118;28;20431;-75
2023/06/08 11:18:20;;;;;;;12.07;7.33;;;23.50;99.90;;;;;;5034826;28;20983;-75
2023/06/08 11:20:52;;;;;;;13.17;8.13;;;23.50;99.90;;;;;;5036430;28;20517;-75
2023/06/08 11:23:20;;;;;;;12.27;7.70;;;23.60;99.90;;;;;;5036339;28;20427;-75
2023/06/08 11:25:49;;;;;;;11.87;7.30;;;23.60;99.90;;;;;;5035965;28;20435;-75
2023/06/08 11:28:17;;;;;;;14.60;8.00;;;23.70;99.90;;;;;;5036834;28;20573;-75
2023/06/08 11:30:45;;;;;;;11.90;7.90;;;23.70;99.90;;;;;;5036229;28;20820;-76
2023/06/08 11:33:17;;;;;;;12.00;7.73;;;23.70;99.90;;;;;;5034625;28;20455;-75
2023/06/08 11:35:49;;;;;;;11.50;7.37;;;23.80;99.90;;;;;;5035891;28;20451;-76
2023/06/08 11:38:19;;;;;;;13.93;8.40;;;23.90;99.90;;;;;;5036086;28;20466;-75
2023/06/08 11:40:47;;;;;;;11.63;7.10;;;23.90;99.90;;;;;;5034304;28;20451;-75
2023/06/08 11:43:15;;;;;;;13.53;8.00;;;24.00;99.90;;;;;;5035502;28;20542;-75
2023/06/08 11:45:44;;;;;;;11.93;7.87;;;24.00;99.80;;;;;;5035592;28;20439;-75
2023/06/08 11:48:13;;;;;;;15.60;7.23;;;24.00;99.90;;;;;;5035405;28;20587;-75
2023/06/08 11:50:48;;;;;;;11.97;6.97;;;24.10;99.80;;;;;;5035739;28;20416;-76
2023/06/08 11:53:22;;;;;;;12.67;7.80;;;24.10;99.60;;;;;;5035518;28;20422;-76
2023/06/08 11:55:54;;;;;;;12.93;8.00;;;24.20;99.60;;;;;;5035696;28;20425;-75
2023/06/08 11:58:27;;;;;;;10.60;6.80;;;24.20;99.60;;;;;;5036106;28;20499;-77
2023/06/08 12:01:07;;;;;;;12.00;7.50;;;24.20;99.50;;;;;;5038734;28;20420;-76
2023/06/08 12:03:43;;;;;;;13.73;7.50;;;24.30;99.40;;;;;;5038512;28;20438;-75
2023/06/08 12:06:13;;;;;;;11.50;7.10;;;24.30;99.30;;;;;;5035995;28;20469;-75
2023/06/08 12:08:43;;;;;;;11.77;6.90;;;24.30;99.30;;;;;;5038049;28;20493;-76
2023/06/08 12:11:13;;;;;;;9.80;7.00;;;24.30;99.30;;;;;;5038491;28;20431;-76
2023/06/08 12:13:42;;;;;;;11.30;6.90;;;24.40;99.50;;;;;;5038482;28;20470;-76
2023/06/08 12:16:12;;;;;;;11.17;6.40;;;24.50;99.10;;;;;;5038275;28;20510;-76
2023/06/08 12:18:42;;;;;;;13.73;7.80;;;24.50;98.90;;;;;;5036646;28;20447;-75
2023/06/08 12:21:13;;;;;;;10.00;5.83;;;24.50;98.80;;;;;;5036450;28;20485;-75
2023/06/08 12:23:44;;;;;;;9.40;5.93;;;24.60;98.80;;;;;;5036325;28;20502;-76
2023/06/08 12:26:13;;;;;;;14.10;6.93;;;24.60;98.70;;;;;;5036083;28;20441;-76
2023/06/08 12:28:43;;;;;;;11.13;7.03;;;24.60;98.70;;;;;;5035675;28;20479;-77
2023/06/08 12:31:12;;;;;;;10.00;6.90;;;24.60;98.50;;;;;;5035178;28;20423;-76
2023/06/08 12:33:41;;;;;;;11.03;6.23;;;24.70;98.40;;;;;;5033900;28;20446;-76
2023/06/08 12:36:10;;;;;;;10.10;7.10;;;24.70;98.40;;;;;;5035639;28;20438;-76
2023/06/08 12:38:39;;;;;;;11.13;5.97;;;24.70;98.50;;;;;;5035144;28;20473;-76
2023/06/08 12:41:08;;;;;;;10.73;6.70;;;24.70;98.40;;;;;;5035246;28;20431;-76
2023/06/08 12:43:41;;;;;;;10.93;6.70;;;24.80;98.40;;;;;;5033614;28;20451;-76
2023/06/08 12:46:10;;;;;;;13.07;7.23;;;24.80;98.30;;;;;;5035052;28;20419;-76